Latest Weather Observations for Redcliffe

IDQ60801

Issued at 2:02 pm EST Sunday 17 February 2019 (issued every 10 minutes, with the page automatically refreshed every 10 minutes)

About weather observations | Map of weather stations | Latest weather observations for QLD | Other Formats
Station Details ID: 040958 Name: REDCLIFFE Lat: -27.22 Lon: 153.09 Height: 12.6 m
Data from the previous 72 hours. | See also: Recent months at Redcliffe
Date/Time
EST
Temp
°C
App
Temp
°C
Dew
Point
°C
Rel
Hum
%
Delta-T
°C
Wind Press
QNH
hPa
Press
MSL
hPa
Rain since
9am
mm
Dir  Spd
km/h
Gust
km/h
Spd
kts
Gust
kts
17/02:00pm 28.0 24.1 14.3 43 8.2 ESE 28 33 15 18 1012.0 1011.9 -
17/01:30pm 27.7 24.5 15.4 47 7.5 ESE 26 32 14 17 1012.5 1012.4 0.0
17/01:00pm 27.9 24.3 16.2 49 7.2 ESE 30 33 16 18 1012.8 1012.7 0.0
17/12:30pm 28.2 25.1 17.4 52 6.8 SE 30 35 16 19 1013.1 1013.0 0.0
17/12:00pm 28.4 25.2 16.3 47 7.5 SE 28 32 15 17 1013.5 1013.4 0.0
17/11:30am 27.5 24.1 15.8 48 7.2 SE 28 32 15 17 1013.9 1013.8 0.0
17/11:00am 28.5 25.3 15.4 45 8.0 SSE 26 32 14 17 1014.3 1014.2 0.0
17/10:30am 27.5 23.7 14.8 45 7.7 SSE 28 33 15 18 1014.7 1014.6 0.0
17/10:00am 27.9 24.2 14.9 45 7.9 SSE 28 35 15 19 1014.8 1014.7 0.0
17/09:30am 27.6 24.8 15.3 47 7.5 S 24 30 13 16 1014.9 1014.8 0.0
17/09:00am 27.8 25.9 15.8 48 7.4 S 20 26 11 14 1014.9 1014.8 0.0
17/08:30am 26.9 24.9 15.6 50 6.9 S 20 28 11 15 1014.8 1014.7 0.0
17/08:00am 25.2 23.3 15.2 54 6.0 SSW 19 26 10 14 1014.6 1014.5 0.0
17/07:30am 24.2 22.4 15.4 58 5.3 SSW 19 28 10 15 1014.4 1014.3 0.0
17/07:00am 22.8 21.2 15.1 62 4.6 SSW 17 26 9 14 1014.3 1014.2 0.0
17/06:30am 21.8 20.3 15.2 66 3.9 SSW 17 22 9 12 1014.0 1013.9 0.0
17/06:00am 21.1 19.6 15.2 69 3.5 SSW 17 22 9 12 1013.6 1013.5 0.0
17/05:30am 21.0 19.4 15.1 69 3.5 SSW 17 22 9 12 1013.3 1013.2 0.0
17/05:00am 21.3 19.8 15.4 69 3.5 SSW 17 22 9 12 1013.1 1013.0 0.0
17/04:30am 21.0 20.0 15.5 71 3.3 SSW 15 20 8 11 1013.0 1012.9 0.0
17/04:00am 20.9 19.6 15.7 72 3.1 SSW 17 24 9 13 1013.0 1012.9 0.0
17/03:30am 21.1 20.1 15.6 71 3.3 SSW 15 24 8 13 1013.3 1013.2 0.0
17/03:00am 21.0 20.1 15.8 72 3.1 SW 15 19 8 10 1013.3 1013.2 0.0
17/02:30am 21.7 20.0 15.8 69 3.5 S 19 24 10 13 1013.4 1013.3 0.0
17/02:00am 22.8 20.4 16.4 67 3.9 S 24 28 13 15 1013.9 1013.8 0.0
17/01:30am 22.7 20.0 16.7 69 3.7 S 26 30 14 16 1014.2 1014.1 0.0
17/01:00am 23.1 20.9 16.9 68 3.8 S 24 28 13 15 1014.5 1014.4 0.0
17/12:30am 23.3 20.7 16.8 67 4.0 SSE 26 32 14 17 1015.0 1014.9 0.0
17/12:00am 24.0 21.1 17.0 65 4.3 SSE 28 37 15 20 1015.4 1015.3 0.0
 
Date/Time
EST
Temp
°C
App
Temp
°C
Dew
Point
°C
Rel
Hum
%
Delta-T
°C
Wind Press
QNH
hPa
Press
MSL
hPa
Rain since
9am
mm
Dir  Spd
km/h
Gust
km/h
Spd
kts
Gust
kts
16/11:59pm 24.0 20.7 17.0 65 4.3 SSE 30 39 16 21 1015.4 1015.3 0.0
16/11:30pm 24.7 19.9 16.7 61 4.9 SE 37 43 20 23 1015.7 1015.6 0.0
16/11:00pm 25.1 20.5 17.1 61 5.0 SE 37 44 20 24 1015.8 1015.7 0.0
16/10:30pm 25.1 20.9 17.1 61 5.0 SE 35 41 19 22 1015.8 1015.7 0.0
16/10:00pm 25.2 21.0 17.1 60 5.0 SE 35 46 19 25 1016.0 1015.9 0.0
16/09:30pm 25.0 20.4 18.0 65 4.4 SE 39 48 21 26 1016.1 1016.0 0.0
16/09:00pm 25.4 20.2 16.5 58 5.5 SE 39 46 21 25 1016.1 1016.0 0.0
16/08:30pm 25.5 20.1 16.9 59 5.3 SE 41 48 22 26 1016.0 1015.9 0.0
16/08:00pm 25.2 21.2 17.7 63 4.7 SSE 35 48 19 26 1015.9 1015.8 0.0
16/07:30pm 25.0 20.8 18.0 65 4.4 SSE 37 41 20 22 1016.0 1015.9 0.0
16/07:00pm 25.0 20.5 18.2 66 4.3 SE 39 54 21 29 1015.7 1015.6 0.0
16/06:30pm 25.4 20.3 17.6 62 4.9 SSE 41 50 22 27 1015.2 1015.1 0.0
16/06:00pm 25.7 20.7 17.1 59 5.3 SSE 39 44 21 24 1015.1 1015.0 0.0
16/05:30pm 26.1 21.4 17.7 60 5.3 SSE 39 56 21 30 1014.8 1014.7 0.0
16/05:00pm 26.1 21.9 17.2 58 5.5 SSE 35 41 19 22 1014.8 1014.7 0.0
16/04:30pm 26.2 21.8 17.6 59 5.4 SE 37 43 20 23 1014.6 1014.5 0.0
16/04:00pm 27.6 23.0 18.9 59 5.6 SSE 41 48 22 26 1014.7 1014.6 0.0
16/03:30pm 27.8 24.2 17.3 52 6.6 SSE 32 37 17 20 1014.6 1014.5 0.0
16/03:00pm 27.6 23.5 15.9 49 7.2 SSE 32 37 17 20 1014.8 1014.7 0.0
16/02:30pm 27.6 23.8 16.6 51 6.8 SSE 32 37 17 20 1015.0 1014.9 0.0
16/02:00pm 27.7 23.7 16.6 50 6.9 SSE 33 39 18 21 1015.4 1015.3 0.0
16/01:30pm 27.2 22.7 16.5 52 6.6 SSE 35 39 19 21 1015.7 1015.6 0.0
16/01:00pm 28.2 23.8 14.1 42 8.4 SSE 30 35 16 19 1016.0 1015.9 0.0
16/12:30pm 29.3 24.8 13.9 39 9.2 SSE 30 33 16 18 1016.5 1016.4 0.0
16/12:00pm 29.4 25.6 14.8 41 8.9 SSE 28 33 15 18 1016.8 1016.7 0.0
16/11:30am 28.2 23.0 13.3 40 8.8 SSE 33 41 18 22 1017.1 1017.0 0.0
16/11:00am 28.0 23.4 14.6 44 8.1 SSE 32 41 17 22 1017.4 1017.3 0.0
16/10:30am 27.6 22.3 14.3 44 8.0 SSE 35 41 19 22 1017.7 1017.6 0.0
16/10:00am 27.7 22.6 14.7 45 7.8 S 35 41 19 22 1018.0 1017.9 0.0
16/09:30am 27.2 21.8 14.9 47 7.4 SSE 37 44 20 24 1017.9 1017.8 0.0
16/09:00am 27.5 23.0 15.5 48 7.3 S 33 37 18 20 1017.9 1017.8 0.0
16/08:30am 26.5 21.7 15.5 50 6.7 S 35 41 19 22 1017.8 1017.7 0.0
16/08:00am 25.3 20.5 15.6 55 5.9 S 35 41 19 22 1017.4 1017.3 0.0
16/07:30am 24.7 21.2 15.6 57 5.5 S 28 35 15 19 1017.6 1017.5 0.0
16/07:00am 23.7 21.2 15.2 59 5.1 SSW 22 30 12 16 1017.4 1017.3 0.0
16/06:30am 22.9 20.3 15.0 61 4.7 SSW 22 30 12 16 1017.2 1017.1 0.0
16/06:00am 21.1 18.7 14.5 66 3.9 SSW 20 30 11 16 1016.9 1016.8 0.0
16/05:30am 20.9 18.1 14.3 66 3.8 S 22 32 12 17 1016.8 1016.7 0.0
16/05:00am 21.4 19.0 14.3 64 4.1 SSW 20 32 11 17 1016.5 1016.4 0.0
16/04:30am 22.6 18.4 15.7 65 4.1 S 32 35 17 19 1016.5 1016.4 0.0
16/04:00am 22.8 18.6 15.6 64 4.3 S 32 37 17 20 1016.3 1016.2 0.0
16/03:30am 23.0 18.8 16.1 65 4.2 S 33 41 18 22 1016.3 1016.2 0.0
16/03:00am 23.2 18.6 16.0 64 4.4 S 35 43 19 23 1016.3 1016.2 0.0
16/02:30am 23.1 18.8 15.4 62 4.6 S 32 39 17 21 1016.6 1016.5 0.0
16/02:00am 23.2 18.9 15.8 63 4.5 S 33 39 18 21 1016.8 1016.7 0.0
16/01:30am 23.5 20.1 15.8 62 4.7 S 28 35 15 19 1017.1 1017.0 0.0
16/01:00am 23.7 19.5 15.7 61 4.8 S 32 43 17 23 1017.3 1017.2 0.0
16/12:30am 23.8 19.6 15.8 61 4.8 S 32 39 17 21 1017.7 1017.6 0.0
16/12:00am 23.9 19.2 15.9 61 4.8 S 35 43 19 23 1018.2 1018.1 0.0
 
Date/Time
EST
Temp
°C
App
Temp
°C
Dew
Point
°C
Rel
Hum
%
Delta-T
°C
Wind Press
QNH
hPa
Press
MSL
hPa
Rain since
9am
mm
Dir  Spd
km/h
Gust
km/h
Spd
kts
Gust
kts
15/11:30pm 23.9 19.3 16.2 62 4.7 S 35 43 19 23 1018.3 1018.2 0.0
15/11:00pm 24.1 19.2 16.4 62 4.7 S 37 44 20 24 1018.6 1018.5 0.0
15/10:30pm 24.3 20.3 16.6 62 4.7 S 33 41 18 22 1018.7 1018.6 0.0
15/10:00pm 24.3 19.7 16.0 60 5.0 S 35 41 19 22 1018.9 1018.8 0.0
15/09:30pm 24.5 19.4 15.7 58 5.3 S 37 44 20 24 1018.9 1018.8 0.0
15/09:00pm 24.7 19.3 15.9 58 5.3 S 39 50 21 27 1018.9 1018.8 0.0
15/08:30pm 25.0 18.2 15.9 57 5.5 SSE 46 57 25 31 1018.6 1018.5 0.0
15/08:00pm 25.2 17.9 16.4 58 5.4 SSE 50 59 27 32 1018.4 1018.3 0.0
15/07:30pm 25.3 17.4 15.9 56 5.7 SSE 52 59 28 32 1018.1 1018.0 0.0
15/07:00pm 25.5 17.9 16.6 58 5.5 SSE 52 59 28 32 1017.7 1017.6 0.0
15/06:30pm 25.6 17.5 16.5 57 5.6 SSE 54 63 29 34 1017.1 1017.0 0.0
15/06:00pm 25.9 18.2 16.5 56 5.8 SE 52 61 28 33 1016.8 1016.7 0.0
15/05:30pm 26.2 19.4 16.7 56 5.9 SE 48 63 26 34 1016.4 1016.3 0.0
15/05:00pm 26.5 19.5 17.3 57 5.7 SE 50 61 27 33 1016.2 1016.1 0.0
15/04:30pm 26.9 20.3 18.2 59 5.5 SE 50 57 27 31 1016.0 1015.9 0.0
15/04:00pm 26.9 20.0 17.4 56 6.0 SE 50 63 27 34 1016.0 1015.9 0.0
15/03:30pm 27.2 21.6 17.9 56 5.9 SE 44 54 24 29 1015.9 1015.8 0.0
15/03:00pm 27.3 20.7 17.2 54 6.3 SE 48 57 26 31 1016.1 1016.0 0.0
15/02:30pm 27.2 20.5 17.9 56 5.9 SE 50 57 27 31 1016.2 1016.1 0.0
15/02:00pm 27.6 21.5 17.5 54 6.4 SSE 46 54 25 29 1016.7 1016.6 0.0
15/01:30pm 27.5 21.3 17.4 54 6.3 SE 46 54 25 29 1016.8 1016.7 0.0
15/01:00pm 27.8 21.6 17.3 52 6.6 SE 46 52 25 28 1017.2 1017.1 0.0
15/12:30pm 28.4 23.0 17.9 53 6.7 SSE 43 50 23 27 1017.6 1017.5 0.0
15/12:00pm 28.4 23.5 18.2 54 6.5 SSE 41 48 22 26 1017.9 1017.8 0.0
15/11:30am 27.8 22.3 17.6 53 6.4 SSE 43 52 23 28 1018.2 1018.1 0.0
15/11:00am 27.7 22.8 17.3 53 6.5 SSE 39 48 21 26 1018.5 1018.4 0.0
15/10:30am 27.2 21.2 16.5 52 6.6 SSE 43 50 23 27 1018.8 1018.7 0.0
15/10:00am 27.4 20.7 16.1 50 6.9 SSE 46 54 25 29 1018.7 1018.6 0.0
15/09:30am 27.3 20.9 16.0 50 6.9 SSE 44 54 24 29 1018.9 1018.8 0.0
15/09:00am 26.5 20.9 15.5 50 6.7 SSE 39 48 21 26 1018.9 1018.8 0.0
15/08:30am 25.7 20.8 16.3 56 5.8 S 37 46 20 25 1018.8 1018.7 0.0
15/08:00am 26.2 21.8 16.7 56 5.9 S 35 43 19 23 1018.7 1018.6 0.0
15/07:30am 25.4 20.3 16.8 59 5.3 S 39 46 21 25 1018.5 1018.4 0.0
15/07:00am 25.1 20.0 16.8 60 5.1 S 39 48 21 26 1018.2 1018.1 0.0
15/06:30am 24.4 19.3 16.9 63 4.6 S 39 48 21 26 1017.8 1017.7 0.0
15/06:00am 24.2 19.6 17.0 64 4.4 S 37 44 20 24 1017.5 1017.4 0.0
15/05:30am 24.1 18.9 16.6 63 4.6 S 39 48 21 26 1017.0 1016.9 0.0
15/05:00am 24.2 19.1 16.7 63 4.6 S 39 46 21 25 1016.8 1016.7 0.0
15/04:30am 24.3 19.2 16.8 63 4.6 S 39 44 21 24 1016.6 1016.5 0.0
15/04:00am 24.4 19.8 17.1 63 4.5 S 37 46 20 25 1016.5 1016.4 0.0
15/03:30am 24.6 18.9 17.1 63 4.6 S 43 57 23 31 1016.4 1016.3 0.0
15/03:00am 24.7 19.1 17.4 64 4.5 S 43 52 23 28 1016.2 1016.1 0.0
15/02:30am 24.7 19.1 17.4 64 4.5 SSE 43 52 23 28 1016.4 1016.3 0.0
15/02:00am 24.9 19.8 17.6 64 4.6 S 41 48 22 26 1016.5 1016.4 0.0
15/01:30am 24.9 20.1 17.6 64 4.6 SSE 39 50 21 27 1016.7 1016.6 0.0
15/01:00am 25.1 20.3 17.6 63 4.7 SSE 39 46 21 25 1016.7 1016.6 0.0
15/12:30am 25.0 20.3 17.7 64 4.6 S 39 48 21 26 1016.9 1016.8 0.0
15/12:00am 24.9 19.9 17.1 62 4.8 S 39 48 21 26 1017.2 1017.1 0.0
 
Date/Time
EST
Temp
°C
App
Temp
°C
Dew
Point
°C
Rel
Hum
%
Delta-T
°C
Wind Press
QNH
hPa
Press
MSL
hPa
Rain since
9am
mm
Dir  Spd
km/h
Gust
km/h
Spd
kts
Gust
kts
14/11:30pm 25.0 20.1 17.2 62 4.8 SSE 39 48 21 26 1017.1 1017.0 0.0
14/11:00pm 25.3 19.0 17.2 61 5.0 SSE 46 59 25 32 1017.1 1017.0 0.0
14/10:30pm 25.4 18.4 17.3 61 5.0 SSE 50 61 27 33 1016.8 1016.7 0.0
14/10:00pm 25.6 17.9 17.3 60 5.2 SSE 54 63 29 34 1016.8 1016.7 0.0
14/09:30pm 25.6 19.6 17.8 62 4.9 SSE 46 57 25 31 1016.8 1016.7 0.0
14/09:00pm 25.5 18.6 17.4 61 5.1 SSE 50 61 27 33 1016.7 1016.6 0.0
14/08:30pm 25.4 17.9 17.8 62 4.8 SSE 54 61 29 33 1016.4 1016.3 0.0
14/08:00pm 25.2 18.2 18.2 65 4.4 SSE 52 63 28 34 1016.2 1016.1 0.0
14/07:30pm 25.1 17.4 18.3 66 4.3 SSE 56 63 30 34 1015.7 1015.6 0.0
14/07:00pm 25.2 17.9 18.4 66 4.3 SSE 54 69 29 37 1015.0 1014.9 0.0
14/06:30pm 25.5 16.9 18.4 65 4.5 SSE 61 70 33 38 1014.6 1014.5 0.0
14/06:00pm 25.8 17.8 19.0 66 4.4 SSE 59 70 32 38 1014.2 1014.1 0.0
14/05:30pm 26.3 18.7 18.9 63 4.7 SSE 57 69 31 37 1013.6 1013.5 0.0
14/05:00pm 26.8 20.1 19.7 65 4.6 SSE 54 65 29 35 1013.3 1013.2 0.0
14/04:30pm 27.5 20.5 19.8 63 5.0 SSE 56 65 30 35 1013.1 1013.0 0.0
14/04:00pm 27.6 22.0 20.4 65 4.7 SSE 50 57 27 31 1013.0 1012.9 0.0
14/03:30pm 27.4 21.3 20.2 65 4.7 SSE 52 63 28 34 1012.8 1012.7 0.0
14/03:00pm 27.5 21.1 20.3 65 4.7 SSE 54 63 29 34 1012.5 1012.4 0.0
14/02:30pm 27.9 22.1 20.7 65 4.8 SSE 52 67 28 36 1012.3 1012.2 0.0

Other Formats:

Comma delimited format used in spreadsheet applications
http://www.bom.gov.au/fwo/IDQ60801/IDQ60801.95591.axf

JavaScript Object Notation format (JSON) in row-major order
http://www.bom.gov.au/fwo/IDQ60801/IDQ60801.95591.json